createdAt,value
2017-09-28T00:00:19.274Z,98825.07
2017-09-28T00:02:48.377Z,98829.77
2017-09-28T00:05:17.506Z,98823.42
2017-09-28T00:07:45.837Z,98818.72
2017-09-28T00:10:14.197Z,98813.56
2017-09-28T00:12:42.528Z,98805.85
2017-09-28T00:15:10.872Z,98809.67
2017-09-28T00:17:39.244Z,98817.34
2017-09-28T00:20:07.584Z,98818.22
2017-09-28T00:22:35.962Z,98811.78
2017-09-28T00:25:04.298Z,98812.22
2017-09-28T00:27:33.412Z,98816.51
2017-09-28T00:30:02.554Z,98819.08
2017-09-28T00:32:30.885Z,98826.82
2017-09-28T00:35:00.029Z,98823.42
2017-09-28T00:37:28.363Z,98822.54
2017-09-28T00:39:57.477Z,98820.78
2017-09-28T00:42:25.849Z,98821.21
2017-09-28T00:44:54.947Z,98820.38
2017-09-28T00:47:24.085Z,98826.86
2017-09-28T00:49:52.422Z,98828.58
2017-09-28T00:52:21.556Z,98825.58
2017-09-28T00:54:49.887Z,98823.91
2017-09-28T00:57:19.026Z,98823.91
2017-09-28T00:59:47.359Z,98827.33
2017-09-28T01:02:15.690Z,98816.64
2017-09-28T01:04:44.071Z,98828.20
2017-09-28T01:07:12.405Z,98820.05
2017-09-28T01:09:41.538Z,98829.89
2017-09-28T01:12:09.867Z,98827.34
2017-09-28T01:14:39.320Z,98822.20
2017-09-28T01:17:07.692Z,98824.78
2017-09-28T01:19:36.037Z,98825.20
2017-09-28T01:22:04.402Z,98832.89
2017-09-28T01:24:32.733Z,98833.77
2017-09-28T01:27:01.836Z,98830.32
2017-09-28T01:29:30.193Z,98826.48
2017-09-28T01:31:59.297Z,98819.17
2017-09-28T01:34:28.436Z,98823.05
2017-09-28T01:36:56.771Z,98819.63
2017-09-28T01:39:25.869Z,98822.63
2017-09-28T01:41:55.001Z,98815.34
2017-09-28T01:44:23.331Z,98819.20
2017-09-28T01:46:51.687Z,98822.20
2017-09-28T01:49:20.033Z,98826.49
2017-09-28T01:51:48.429Z,98824.33
2017-09-28T01:54:16.760Z,98818.33
2017-09-28T01:56:45.096Z,98824.34
2017-09-28T01:59:13.452Z,98816.62
2017-09-28T02:01:41.799Z,98820.92
2017-09-28T02:04:10.162Z,98817.50
2017-09-28T02:06:38.496Z,98816.20
2017-09-28T02:09:06.828Z,98822.19
2017-09-28T02:11:35.180Z,98821.34
2017-09-28T02:14:03.515Z,98806.75
2017-09-28T02:16:32.648Z,98807.19
2017-09-28T02:19:00.979Z,98808.05
2017-09-28T02:21:29.314Z,98806.37
2017-09-28T02:23:57.671Z,98806.33
2017-09-28T02:26:26.043Z,98804.63
2017-09-28T02:28:54.412Z,98805.91
2017-09-28T02:31:23.520Z,98808.05
2017-09-28T02:33:52.616Z,98808.05
2017-09-28T02:36:21.846Z,98816.20
2017-09-28T02:38:50.180Z,98810.63
2017-09-28T02:41:19.325Z,98806.34
2017-09-28T02:43:47.655Z,98806.78
2017-09-28T02:46:15.996Z,98800.35
2017-09-28T02:48:45.390Z,98802.92
2017-09-28T02:51:13.728Z,98808.94
2017-09-28T02:53:42.852Z,98809.34
2017-09-28T02:56:11.183Z,98802.07
2017-09-28T02:58:39.543Z,98805.93
2017-09-28T03:01:07.875Z,98805.06
2017-09-28T03:03:36.969Z,98805.06
2017-09-28T03:06:06.107Z,98800.77
2017-09-28T03:08:34.438Z,98804.64
2017-09-28T03:11:03.565Z,98807.64
2017-09-28T03:13:31.893Z,98820.91
2017-09-28T03:16:00.234Z,98822.09
2017-09-28T03:18:28.592Z,98820.38
2017-09-28T03:20:57.694Z,98814.03
2017-09-28T03:23:26.819Z,98813.63
2017-09-28T03:25:55.147Z,98810.63
2017-09-28T03:28:23.481Z,98811.03
2017-09-28T03:30:51.836Z,98816.61
2017-09-28T03:33:20.172Z,98808.92
2017-09-28T03:35:48.536Z,98808.48
2017-09-28T03:38:16.875Z,98816.61
2017-09-28T03:40:45.208Z,98817.05
2017-09-28T03:43:13.581Z,98817.92
2017-09-28T03:45:41.912Z,98816.21
2017-09-28T03:48:11.009Z,98820.91
2017-09-28T03:50:40.144Z,98818.77
2017-09-28T03:53:08.484Z,98829.92
2017-09-28T03:55:37.585Z,98827.74
2017-09-28T03:58:06.704Z,98833.34
2017-09-28T04:00:35.032Z,98830.77
2017-09-28T04:03:03.365Z,98824.33
2017-09-28T04:05:31.734Z,98824.33
2017-09-28T04:08:00.069Z,98830.64
2017-09-28T04:10:28.432Z,98825.48
2017-09-28T04:12:56.792Z,98819.48
2017-09-28T04:15:25.123Z,98820.39
2017-09-28T04:17:53.484Z,98815.30
2017-09-28T04:20:21.833Z,98807.64
2017-09-28T04:22:50.177Z,98806.77
2017-09-28T04:25:19.305Z,98805.02
2017-09-28T04:27:47.641Z,98806.67
2017-09-28T04:30:16.748Z,98808.35
2017-09-28T04:32:45.876Z,98812.00
2017-09-28T04:35:14.215Z,98804.87
2017-09-28T04:37:42.555Z,98801.10
2017-09-28T04:40:10.910Z,98794.33
2017-09-28T04:42:39.244Z,98796.48
2017-09-28T04:45:07.576Z,98801.64
2017-09-28T04:47:35.967Z,98802.07
2017-09-28T04:50:04.294Z,98801.64
2017-09-28T04:52:32.631Z,98796.91
2017-09-28T04:55:00.997Z,98799.50
2017-09-28T04:57:29.344Z,98809.78
2017-09-28T04:59:58.448Z,98810.19
2017-09-28T05:02:27.672Z,98814.81
2017-09-28T05:04:56.004Z,98817.01
2017-09-28T05:07:24.423Z,98814.45
2017-09-28T05:09:53.521Z,98817.47
2017-09-28T05:12:22.624Z,98820.03
2017-09-28T05:14:50.988Z,98820.46
2017-09-28T05:17:20.104Z,98816.62
2017-09-28T05:19:48.456Z,98814.48
2017-09-28T05:22:17.579Z,98814.91
2017-09-28T05:24:45.928Z,98815.33
2017-09-28T05:27:14.279Z,98819.20
2017-09-28T05:29:42.629Z,98812.77
2017-09-28T05:32:10.995Z,98810.63
2017-09-28T05:34:40.099Z,98810.63
2017-09-28T05:37:08.448Z,98808.05
2017-09-28T05:39:36.815Z,98809.79
2017-09-28T05:42:05.144Z,98805.48
2017-09-28T05:44:33.506Z,98812.34
2017-09-28T05:47:02.613Z,98813.62
2017-09-28T05:49:31.717Z,98812.34
2017-09-28T05:52:00.069Z,98815.76
2017-09-28T05:54:28.405Z,98813.19
2017-09-28T05:56:56.763Z,98813.63
2017-09-28T05:59:25.107Z,98813.63
2017-09-28T06:01:53.456Z,98813.63
2017-09-28T06:04:21.828Z,98819.19
2017-09-28T06:06:52.197Z,98823.91
2017-09-28T06:09:20.680Z,98821.75
2017-09-28T06:11:49.105Z,98829.92
2017-09-28T06:14:17.450Z,98837.62
2017-09-28T06:16:46.579Z,98834.19
2017-09-28T06:19:14.932Z,98843.19
2017-09-28T06:21:44.065Z,98837.63
2017-09-28T06:24:12.395Z,98835.48
2017-09-28T06:26:40.752Z,98836.33
2017-09-28T06:29:09.127Z,98832.48
2017-09-28T06:31:37.460Z,98830.73
2017-09-28T06:34:06.586Z,98829.02
2017-09-28T06:36:34.940Z,98826.43
2017-09-28T06:39:04.075Z,98827.70
2017-09-28T06:41:32.452Z,98822.09
2017-09-28T06:44:01.560Z,98825.10
2017-09-28T06:46:29.923Z,98817.78
2017-09-28T06:48:58.267Z,98825.06
2017-09-28T06:51:27.382Z,98830.61
2017-09-28T06:53:55.740Z,98834.92
2017-09-28T06:56:24.865Z,98837.98
2017-09-28T06:58:53.520Z,98838.78
2017-09-28T07:01:21.866Z,98842.96
2017-09-28T07:03:50.199Z,98844.70
2017-09-28T07:06:19.327Z,98855.83
2017-09-28T07:08:47.688Z,98855.45
2017-09-28T07:11:16.053Z,98866.23
2017-09-28T07:13:45.169Z,98861.59
2017-09-28T07:16:13.503Z,98864.52
2017-09-28T07:18:41.861Z,98866.18
2017-09-28T07:21:10.201Z,98862.31
2017-09-28T07:23:39.326Z,98853.16
2017-09-28T07:26:07.660Z,98852.56
2017-09-28T07:28:35.997Z,98865.03
2017-09-28T07:31:04.363Z,98867.61
2017-09-28T07:33:32.697Z,98858.14
2017-09-28T07:36:01.076Z,98867.50
2017-09-28T07:38:29.412Z,98862.64
2017-09-28T07:40:57.753Z,98857.86
2017-09-28T07:43:26.892Z,98862.14
2017-09-28T07:45:55.224Z,98860.11
2017-09-28T07:48:24.357Z,98846.20
2017-09-28T07:50:54.460Z,98849.13
2017-09-28T07:53:23.557Z,98848.61
2017-09-28T07:55:51.925Z,98846.92
2017-09-28T07:58:21.024Z,98848.67
2017-09-28T08:00:50.151Z,98847.73
2017-09-28T08:03:18.484Z,98849.41
2017-09-28T08:05:46.842Z,98866.70
2017-09-28T08:08:15.186Z,98854.11
2017-09-28T08:10:43.521Z,98849.25
2017-09-28T08:13:11.892Z,98850.20
2017-09-28T08:15:40.223Z,98858.91
2017-09-28T08:18:08.588Z,98865.09
2017-09-28T08:20:37.688Z,98853.72
2017-09-28T08:23:06.795Z,98847.87
2017-09-28T08:25:35.152Z,98848.59
2017-09-28T08:28:03.491Z,98860.37
2017-09-28T08:30:31.852Z,98859.53
2017-09-28T08:33:00.188Z,98861.69
2017-09-28T08:35:28.540Z,98860.78
2017-09-28T08:37:56.905Z,98863.00
2017-09-28T08:40:25.242Z,98862.39
2017-09-28T08:42:54.375Z,98871.30
2017-09-28T08:45:22.708Z,98865.85
2017-09-28T08:47:51.043Z,98861.45
2017-09-28T08:50:19.446Z,98862.64
2017-09-28T08:52:47.792Z,98860.70
2017-09-28T08:55:16.159Z,98855.83
2017-09-28T08:57:44.498Z,98864.85
2017-09-28T09:00:12.853Z,98867.67
2017-09-28T09:02:41.187Z,98868.13
2017-09-28T09:05:10.319Z,98876.86
2017-09-28T09:07:38.663Z,98868.44
2017-09-28T09:10:07.797Z,98866.19
2017-09-28T09:12:36.127Z,98865.78
2017-09-28T09:15:04.461Z,98860.38
2017-09-28T09:17:32.821Z,98856.52
2017-09-28T09:20:01.152Z,98853.70
2017-09-28T09:22:29.504Z,98843.00
2017-09-28T09:24:59.384Z,98828.62
2017-09-28T09:27:28.526Z,98827.85
2017-09-28T09:29:56.850Z,98817.88
2017-09-28T09:32:25.978Z,98815.25
2017-09-28T09:34:54.339Z,98821.90
2017-09-28T09:37:23.484Z,98813.05
2017-09-28T09:39:51.844Z,98811.81
2017-09-28T09:42:20.184Z,98813.61
2017-09-28T09:44:49.288Z,98820.13
2017-09-28T09:47:18.412Z,98816.57
2017-09-28T09:49:46.758Z,98814.84
2017-09-28T09:52:15.889Z,98817.31
2017-09-28T09:54:44.229Z,98823.08
2017-09-28T09:57:12.564Z,98823.78
2017-09-28T09:59:40.917Z,98825.83
2017-09-28T10:02:09.256Z,98825.97
2017-09-28T10:04:37.619Z,98823.95
2017-09-28T10:07:12.621Z,98823.95
2017-09-28T10:09:46.775Z,98820.53
2017-09-28T10:12:18.281Z,98821.34
2017-09-28T10:15:01.647Z,98823.89
2017-09-28T10:17:29.998Z,98820.42
2017-09-28T10:19:58.335Z,98819.59
2017-09-28T10:22:27.435Z,98821.88
2017-09-28T10:24:55.864Z,98827.52
2017-09-28T10:27:24.229Z,98831.83
2017-09-28T10:29:53.337Z,98827.26
2017-09-28T10:32:21.675Z,98828.74
2017-09-28T10:34:50.037Z,98833.93
2017-09-28T10:37:18.382Z,98833.11
2017-09-28T10:39:46.746Z,98834.53
2017-09-28T10:42:15.852Z,98838.34
2017-09-28T10:44:44.989Z,98838.47
2017-09-28T10:47:13.331Z,98836.31
2017-09-28T10:49:42.439Z,98840.77
2017-09-28T10:52:10.804Z,98842.70
2017-09-28T10:54:39.909Z,98839.19
2017-09-28T10:57:09.040Z,98833.37
2017-09-28T10:59:37.371Z,98831.44
2017-09-28T11:02:05.711Z,98829.59
2017-09-28T11:04:34.070Z,98833.92
2017-09-28T11:07:03.350Z,98830.83
2017-09-28T11:09:32.477Z,98830.31
2017-09-28T11:12:00.812Z,98838.50
2017-09-28T11:14:29.940Z,98831.77
2017-09-28T11:16:58.268Z,98828.97
2017-09-28T11:19:26.638Z,98826.31
2017-09-28T11:21:55.012Z,98835.52
2017-09-28T11:24:23.375Z,98843.27
2017-09-28T11:26:51.765Z,98836.66
2017-09-28T11:29:20.108Z,98835.74
2017-09-28T11:31:49.203Z,98836.19
2017-09-28T11:34:17.575Z,98828.47
2017-09-28T11:36:46.687Z,98834.31
2017-09-28T11:39:15.862Z,98833.88
2017-09-28T11:41:44.205Z,98832.63
2017-09-28T11:44:12.561Z,98831.29
2017-09-28T11:46:40.928Z,98830.81
2017-09-28T11:49:10.036Z,98830.98
2017-09-28T11:51:38.373Z,98835.67
2017-09-28T11:54:06.733Z,98833.27
2017-09-28T11:56:35.096Z,98834.28
2017-09-28T11:59:03.744Z,98833.02
2017-09-28T12:01:32.855Z,98833.09
2017-09-28T12:04:01.209Z,98834.32
2017-09-28T12:06:30.355Z,98835.20
2017-09-28T12:08:58.702Z,98841.61
2017-09-28T12:11:27.835Z,98835.04
2017-09-28T12:13:56.181Z,98838.56
2017-09-28T12:16:25.280Z,98835.66
2017-09-28T12:18:54.420Z,98834.77
2017-09-28T12:21:22.792Z,98829.45
2017-09-28T12:23:51.172Z,98827.45
2017-09-28T12:26:19.508Z,98829.03
2017-09-28T12:28:48.612Z,98828.21
2017-09-28T12:31:17.744Z,98824.81
2017-09-28T12:33:46.073Z,98826.01
2017-09-28T12:36:14.433Z,98816.14
2017-09-28T12:38:42.771Z,98821.65
2017-09-28T12:41:11.133Z,98819.37
2017-09-28T12:43:40.255Z,98817.44
2017-09-28T12:46:08.609Z,98821.20
2017-09-28T12:48:37.749Z,98820.05
2017-09-28T12:51:06.086Z,98823.72
2017-09-28T12:53:35.222Z,98813.08
2017-09-28T12:56:03.563Z,98811.56
2017-09-28T12:58:32.692Z,98814.36
2017-09-28T13:01:01.044Z,98812.97
2017-09-28T13:03:30.150Z,98814.94
2017-09-28T13:05:59.291Z,98805.55
2017-09-28T13:08:27.640Z,98803.70
2017-09-28T13:10:56.005Z,98807.16
2017-09-28T13:13:25.105Z,98803.46
2017-09-28T13:15:54.206Z,98804.52
2017-09-28T13:18:23.439Z,98814.47
2017-09-28T13:20:51.784Z,98809.28
2017-09-28T13:23:20.926Z,98810.86
2017-09-28T13:25:49.273Z,98811.22
2017-09-28T13:28:17.652Z,98803.10
2017-09-28T13:30:46.015Z,98798.44
2017-09-28T13:33:15.123Z,98803.59
2017-09-28T13:35:44.260Z,98803.45
2017-09-28T13:38:12.603Z,98800.08
2017-09-28T13:40:41.713Z,98801.14
2017-09-28T13:43:10.077Z,98807.77
2017-09-28T13:45:39.180Z,98800.25
2017-09-28T13:48:08.324Z,98798.52
2017-09-28T13:50:36.661Z,98795.55
2017-09-28T13:53:05.789Z,98800.88
2017-09-28T13:55:34.119Z,98802.83
2017-09-28T13:58:02.452Z,98800.55
2017-09-28T14:00:30.816Z,98801.62
2017-09-28T14:02:59.155Z,98798.95
2017-09-28T14:05:27.515Z,98803.42
2017-09-28T14:07:55.844Z,98799.98
2017-09-28T14:10:24.944Z,98795.01
2017-09-28T14:12:54.135Z,98796.92
2017-09-28T14:15:23.236Z,98796.59
2017-09-28T14:17:52.364Z,98800.31
2017-09-28T14:20:20.740Z,98803.26
2017-09-28T14:22:49.076Z,98801.83
2017-09-28T14:25:17.441Z,98801.64
2017-09-28T14:27:45.780Z,98799.13
2017-09-28T14:30:14.135Z,98798.88
2017-09-28T14:32:43.236Z,98799.72
2017-09-28T14:35:12.332Z,98802.67
2017-09-28T14:37:41.464Z,98808.07
2017-09-28T14:40:09.796Z,98802.19
2017-09-28T14:42:38.960Z,98806.81
2017-09-28T14:45:07.287Z,98795.13
2017-09-28T14:47:36.390Z,98807.14
2017-09-28T14:50:04.784Z,98804.70
2017-09-28T14:52:33.117Z,98797.98
2017-09-28T14:55:01.484Z,98802.44
2017-09-28T14:57:29.821Z,98798.89
2017-09-28T14:59:58.159Z,98798.09
2017-09-28T15:02:26.523Z,98795.30
2017-09-28T15:04:54.857Z,98793.98
2017-09-28T15:07:23.230Z,98793.34
2017-09-28T15:09:52.335Z,98794.30
2017-09-28T15:12:20.671Z,98795.30
2017-09-28T15:14:49.041Z,98789.63
2017-09-28T15:17:17.384Z,98786.73
2017-09-28T15:19:45.753Z,98791.53
2017-09-28T15:22:14.848Z,98791.29
2017-09-28T15:24:43.990Z,98791.70
2017-09-28T15:27:13.361Z,98790.33
2017-09-28T15:29:41.695Z,98784.45
2017-09-28T15:32:10.059Z,98788.00
2017-09-28T15:34:38.391Z,98787.92
2017-09-28T15:37:07.609Z,98788.00
2017-09-28T15:39:36.650Z,98786.61
2017-09-28T15:42:04.992Z,98780.75
2017-09-28T15:44:33.356Z,98784.80
2017-09-28T15:47:01.692Z,98785.84
2017-09-28T15:49:30.071Z,98793.12
2017-09-28T15:51:58.421Z,98794.89
2017-09-28T15:54:26.786Z,98801.15
2017-09-28T15:56:55.176Z,98795.08
2017-09-28T15:59:23.547Z,98800.86
2017-09-28T16:01:51.879Z,98805.67
2017-09-28T16:04:20.244Z,98807.58
2017-09-28T16:06:48.611Z,98806.77
2017-09-28T16:09:16.950Z,98806.73
2017-09-28T16:11:46.084Z,98811.70
2017-09-28T16:14:14.421Z,98804.33
2017-09-28T16:16:43.527Z,98811.45
2017-09-28T16:19:12.675Z,98802.71
2017-09-28T16:21:41.076Z,98809.94
2017-09-28T16:24:09.445Z,98812.92
2017-09-28T16:26:37.778Z,98814.13
2017-09-28T16:29:06.119Z,98807.97
2017-09-28T16:31:34.488Z,98811.56
2017-09-28T16:34:02.826Z,98808.63
2017-09-28T16:36:31.184Z,98807.79
2017-09-28T16:39:00.285Z,98812.75
2017-09-28T16:41:29.384Z,98806.55
2017-09-28T16:43:58.509Z,98809.67
2017-09-28T16:46:26.833Z,98804.21
2017-09-28T16:48:55.195Z,98810.37
2017-09-28T16:51:23.534Z,98812.27
2017-09-28T16:53:51.878Z,98812.47
2017-09-28T16:56:20.232Z,98815.72
2017-09-28T16:58:48.569Z,98816.73
2017-09-28T17:01:16.930Z,98815.44
2017-09-28T17:03:46.049Z,98820.48
2017-09-28T17:06:16.165Z,98820.31
2017-09-28T17:08:44.924Z,98816.47
2017-09-28T17:11:15.769Z,98815.95
2017-09-28T17:13:44.554Z,98822.04
2017-09-28T17:16:13.825Z,98817.63
2017-09-28T17:18:42.644Z,98818.11
2017-09-28T17:21:11.785Z,98814.56
2017-09-28T17:23:40.129Z,98812.95
2017-09-28T17:26:08.720Z,98811.28
2017-09-28T17:28:37.846Z,98821.20
2017-09-28T17:31:06.187Z,98821.44
2017-09-28T17:33:34.556Z,98815.56
2017-09-28T17:36:03.273Z,98817.28
2017-09-28T17:38:32.430Z,98814.79
2017-09-28T17:41:00.937Z,98816.27
2017-09-28T17:43:29.653Z,98818.75
2017-09-28T17:45:58.591Z,98817.88
2017-09-28T17:48:27.215Z,98817.70
2017-09-28T17:50:56.096Z,98820.07
2017-09-28T17:53:25.734Z,98823.44
2017-09-28T17:55:54.893Z,98829.03
2017-09-28T17:58:23.225Z,98823.44
2017-09-28T18:00:52.335Z,98820.07
2017-09-28T18:03:20.816Z,98822.33
2017-09-28T18:05:49.183Z,98828.61
2017-09-28T18:08:17.572Z,98824.92
2017-09-28T18:10:46.676Z,98829.96
2017-09-28T18:13:15.052Z,98833.91
2017-09-28T18:15:43.429Z,98832.63
2017-09-28T18:18:12.577Z,98831.54
2017-09-28T18:20:41.407Z,98837.26
2017-09-28T18:23:10.524Z,98836.86
2017-09-28T18:25:40.271Z,98833.94
2017-09-28T18:28:09.081Z,98830.06
2017-09-28T18:30:39.994Z,98833.69
2017-09-28T18:33:09.127Z,98835.85
2017-09-28T18:35:38.717Z,98841.09
2017-09-28T18:38:07.116Z,98824.06
2017-09-28T18:40:35.466Z,98831.88
2017-09-28T18:43:13.151Z,98832.67
2017-09-28T18:45:43.084Z,98829.33
2017-09-28T18:48:12.366Z,98830.84
2017-09-28T18:50:41.492Z,98834.58
2017-09-28T18:53:10.623Z,98843.81
2017-09-28T18:55:39.670Z,98846.19
2017-09-28T18:58:08.072Z,98854.97
2017-09-28T19:00:36.948Z,98854.74
2017-09-28T19:03:07.567Z,98856.70
2017-09-28T19:05:36.281Z,98860.77
2017-09-28T19:08:07.225Z,98853.72
2017-09-28T19:10:35.588Z,98850.13
2017-09-28T19:13:03.991Z,98854.10
2017-09-28T19:15:32.367Z,98846.34
2017-09-28T19:18:00.718Z,98853.59
2017-09-28T19:20:29.098Z,98863.02
2017-09-28T19:22:57.458Z,98857.03
2017-09-28T19:25:26.603Z,98860.50
2017-09-28T19:27:55.374Z,98856.55
2017-09-28T19:30:24.064Z,98862.17
2017-09-28T19:32:52.478Z,98853.42
2017-09-28T19:35:20.835Z,98866.02
2017-09-28T19:37:49.215Z,98866.47
2017-09-28T19:40:17.587Z,98859.98
2017-09-28T19:42:45.990Z,98856.98
2017-09-28T19:45:14.353Z,98863.16
2017-09-28T19:47:42.789Z,98860.63
2017-09-28T19:50:11.916Z,98860.19
2017-09-28T19:52:40.304Z,98849.52
2017-09-28T19:55:08.658Z,98854.08
2017-09-28T19:57:37.802Z,98855.48
2017-09-28T20:00:06.163Z,98844.80
2017-09-28T20:02:34.556Z,98844.75
2017-09-28T20:05:02.966Z,98850.30
2017-09-28T20:07:32.103Z,98858.53
2017-09-28T20:10:01.251Z,98850.79
2017-09-28T20:12:29.622Z,98849.50
2017-09-28T20:14:57.974Z,98848.92
2017-09-28T20:17:26.411Z,98844.22
2017-09-28T20:19:54.896Z,98847.37
2017-09-28T20:22:23.280Z,98848.18
2017-09-28T20:24:52.447Z,98832.55
2017-09-28T20:27:20.818Z,98831.25
2017-09-28T20:29:49.175Z,98825.24
2017-09-28T20:32:18.278Z,98834.11
2017-09-28T20:34:46.735Z,98831.45
2017-09-28T20:37:15.084Z,98832.88
2017-09-28T20:39:43.461Z,98832.28
2017-09-28T20:42:11.821Z,98829.14
2017-09-28T20:44:40.175Z,98835.53
2017-09-28T20:47:09.323Z,98832.02
2017-09-28T20:49:37.664Z,98836.30
2017-09-28T20:52:06.101Z,98833.55
2017-09-28T20:54:34.450Z,98837.16
2017-09-28T20:57:02.781Z,98834.53
2017-09-28T20:59:32.027Z,98832.93
2017-09-28T21:02:00.539Z,98843.91
2017-09-28T21:04:28.904Z,98841.91
2017-09-28T21:06:57.243Z,98842.41
2017-09-28T21:09:27.998Z,98847.59
2017-09-28T21:11:56.369Z,98846.72
2017-09-28T21:14:24.717Z,98850.30
2017-09-28T21:16:53.247Z,98851.27
2017-09-28T21:19:21.656Z,98847.30
2017-09-28T21:21:50.300Z,98846.78
2017-09-28T21:24:18.687Z,98849.41
2017-09-28T21:26:47.021Z,98849.45
2017-09-28T21:29:15.775Z,98847.33
2017-09-28T21:31:44.940Z,98846.49
2017-09-28T21:34:14.048Z,98840.56
2017-09-28T21:36:43.181Z,98846.31
2017-09-28T21:39:11.540Z,98843.59
2017-09-28T21:41:39.905Z,98839.59
2017-09-28T21:44:09.026Z,98841.70
2017-09-28T21:46:37.388Z,98836.03
2017-09-28T21:49:05.757Z,98833.41
2017-09-28T21:51:34.875Z,98837.64
2017-09-28T21:54:03.276Z,98835.55
2017-09-28T21:56:31.618Z,98837.82
2017-09-28T21:59:00.771Z,98829.53
2017-09-28T22:01:29.111Z,98839.94
2017-09-28T22:03:57.465Z,98829.55
2017-09-28T22:06:26.624Z,98832.63
2017-09-28T22:08:54.963Z,98829.53
2017-09-28T22:11:24.126Z,98830.80
2017-09-28T22:13:52.471Z,98835.41
2017-09-28T22:16:20.805Z,98835.88
2017-09-28T22:18:49.957Z,98831.20
2017-09-28T22:21:18.312Z,98836.38
2017-09-28T22:23:46.674Z,98826.94
2017-09-28T22:26:15.779Z,98823.53
2017-09-28T22:28:44.124Z,98827.49
2017-09-28T22:31:12.488Z,98828.16
2017-09-28T22:33:40.855Z,98823.28
2017-09-28T22:36:09.225Z,98823.64
2017-09-28T22:38:37.562Z,98816.78
2017-09-28T22:41:06.661Z,98804.13
2017-09-28T22:43:35.792Z,98808.37
2017-09-28T22:46:04.118Z,98806.34
2017-09-28T22:48:32.484Z,98808.80
2017-09-28T22:51:00.815Z,98807.88
2017-09-28T22:53:30.339Z,98802.38
2017-09-28T22:55:58.705Z,98800.17
2017-09-28T22:58:27.816Z,98795.27
2017-09-28T23:00:56.189Z,98801.58
2017-09-28T23:03:24.527Z,98799.02
2017-09-28T23:05:52.879Z,98797.57
2017-09-28T23:08:21.239Z,98796.19
2017-09-28T23:10:49.571Z,98790.58
2017-09-28T23:13:17.936Z,98792.59
2017-09-28T23:15:46.264Z,98791.71
2017-09-28T23:18:14.609Z,98793.03
2017-09-28T23:20:43.040Z,98789.63
2017-09-28T23:23:11.433Z,98786.33
2017-09-28T23:25:40.609Z,98787.80
2017-09-28T23:28:09.726Z,98787.98
2017-09-28T23:30:38.113Z,98788.34
2017-09-28T23:33:06.501Z,98783.52
2017-09-28T23:35:34.840Z,98783.94
2017-09-28T23:38:03.995Z,98784.08
2017-09-28T23:40:33.093Z,98778.94
2017-09-28T23:43:01.433Z,98774.72
2017-09-28T23:45:29.788Z,98772.45
2017-09-28T23:47:58.991Z,98766.89
2017-09-28T23:50:28.115Z,98769.72
2017-09-28T23:52:56.440Z,98763.06
2017-09-28T23:55:24.778Z,98760.52
2017-09-28T23:57:53.148Z,98758.87
